Oasis, Iowa
Current Conditions -  °F | °C
As of 3:52 PM on Monday 20 Oct 2014 (Local Time) from KIOW Reporting Station
Clear Clear  
Wind Chill: 68°   Ceiling: Unl
Heat Index: 68°   Visibility: 10mi
Dew Point: 44°   Wind: 13mph
Humidity: 42%   Direction: 300°WNW
Pressure: 29.96"   Gusts: 24mph
Location:  41.6714°N, 91.2723°W
Report Text: KIOW 202052Z AUTO 30011G21KT 10SM CLR 20/07 A2996 RMK AO2 SLP144 T02000067 56007
Loading
Personal Weather Stations






























Interactive Weather Map
Tropical Storm Tracking
New forecast layout! Learn more

10-Day Weather Forecast

Advertisements
Track Severe Weather on mobile